createdAt,value
2019-03-30T00:01:42.643Z,64.30
2019-03-30T00:04:11.897Z,64.40
2019-03-30T00:06:41.216Z,64.60
2019-03-30T00:09:10.659Z,64.70
2019-03-30T00:11:40.005Z,64.60
2019-03-30T00:14:09.289Z,64.80
2019-03-30T00:16:38.565Z,64.80
2019-03-30T00:19:07.823Z,64.80
2019-03-30T00:21:37.189Z,64.80
2019-03-30T00:24:06.468Z,65.10
2019-03-30T00:26:35.738Z,65.10
2019-03-30T00:29:05.378Z,65.20
2019-03-30T00:31:34.657Z,65.40
2019-03-30T00:34:03.966Z,65.40
2019-03-30T00:36:33.361Z,65.70
2019-03-30T00:39:03.002Z,65.70
2019-03-30T00:41:32.261Z,65.50
2019-03-30T00:44:01.626Z,65.60
2019-03-30T00:46:30.898Z,65.50
2019-03-30T00:49:00.260Z,65.70
2019-03-30T00:51:29.649Z,65.80
2019-03-30T00:53:59.041Z,65.70
2019-03-30T00:56:28.311Z,65.60
2019-03-30T00:58:57.598Z,65.50
2019-03-30T01:01:26.863Z,65.60
2019-03-30T01:03:56.154Z,65.80
2019-03-30T01:06:25.481Z,66.00
2019-03-30T01:08:54.814Z,65.90
2019-03-30T01:11:24.196Z,65.90
2019-03-30T01:13:54.375Z,66.00
2019-03-30T01:16:23.643Z,66.00
2019-03-30T01:18:52.919Z,66.00
2019-03-30T01:21:22.329Z,66.80
2019-03-30T01:23:51.587Z,66.00
2019-03-30T01:26:20.887Z,66.10
2019-03-30T01:28:50.173Z,66.10
2019-03-30T01:31:19.518Z,66.00
2019-03-30T01:33:48.785Z,66.20
2019-03-30T01:36:18.049Z,66.30
2019-03-30T01:38:47.302Z,66.10
2019-03-30T01:41:16.673Z,66.40
2019-03-30T01:43:45.947Z,66.60
2019-03-30T01:46:15.295Z,66.80
2019-03-30T01:48:44.569Z,66.70
2019-03-30T01:51:14.058Z,66.50
2019-03-30T01:53:43.323Z,66.60
2019-03-30T01:56:12.574Z,66.50
2019-03-30T01:58:41.846Z,66.70
2019-03-30T02:01:11.518Z,66.80
2019-03-30T02:03:40.750Z,66.80
2019-03-30T02:06:10.058Z,67.10
2019-03-30T02:08:39.425Z,66.90
2019-03-30T02:11:08.706Z,66.80
2019-03-30T02:13:38.083Z,66.90
2019-03-30T02:16:07.366Z,67.00
2019-03-30T02:18:36.846Z,67.10
2019-03-30T02:21:06.147Z,67.10
2019-03-30T02:23:35.580Z,67.20
2019-03-30T02:26:04.981Z,67.30
2019-03-30T02:28:34.261Z,67.20
2019-03-30T02:31:03.521Z,67.30
2019-03-30T02:33:32.806Z,67.30
2019-03-30T02:36:05.407Z,67.20
2019-03-30T02:38:34.671Z,67.30
2019-03-30T02:41:04.035Z,67.20
2019-03-30T02:43:33.319Z,67.20
2019-03-30T02:46:02.697Z,67.30
2019-03-30T02:48:32.051Z,67.30
2019-03-30T02:51:01.404Z,67.40
2019-03-30T02:53:30.670Z,67.30
2019-03-30T02:56:00.162Z,67.30
2019-03-30T02:58:29.448Z,67.40
2019-03-30T03:00:58.995Z,67.40
2019-03-30T03:03:28.271Z,67.40
2019-03-30T03:05:57.658Z,67.60
2019-03-30T03:08:26.974Z,67.60
2019-03-30T03:10:56.299Z,67.80
2019-03-30T03:13:25.589Z,67.80
2019-03-30T03:15:54.929Z,68.90
2019-03-30T03:18:24.198Z,68.20
2019-03-30T03:21:06.685Z,68.30
2019-03-30T03:23:24.517Z,68.30
2019-03-30T03:25:53.774Z,68.30
2019-03-30T03:28:23.081Z,69.10
2019-03-30T03:30:52.364Z,68.20
2019-03-30T03:33:21.779Z,68.20
2019-03-30T03:35:51.064Z,68.10
2019-03-30T03:38:20.407Z,68.60
2019-03-30T03:40:49.729Z,67.80
2019-03-30T03:43:19.015Z,67.90
2019-03-30T03:45:48.357Z,67.90
2019-03-30T03:48:17.620Z,67.90
2019-03-30T03:50:49.202Z,67.90
2019-03-30T03:53:18.606Z,68.90
2019-03-30T03:55:48.064Z,68.80
2019-03-30T03:58:17.906Z,68.80
2019-03-30T04:00:47.320Z,68.90
2019-03-30T04:03:19.844Z,68.80
2019-03-30T04:05:49.745Z,69.30
2019-03-30T04:08:20.323Z,69.30
2019-03-30T04:10:51.177Z,69.40
2019-03-30T04:13:20.746Z,69.80
2019-03-30T04:15:50.131Z,70.00
2019-03-30T04:18:19.880Z,70.10
2019-03-30T04:20:49.156Z,70.30
2019-03-30T04:23:18.575Z,70.50
2019-03-30T04:25:48.167Z,70.50
2019-03-30T04:28:17.616Z,70.80
2019-03-30T04:30:47.015Z,70.90
2019-03-30T04:33:16.353Z,71.20
2019-03-30T04:35:45.677Z,70.90
2019-03-30T04:38:14.997Z,71.30
2019-03-30T04:40:44.290Z,71.30
2019-03-30T04:43:13.579Z,71.50
2019-03-30T04:45:42.822Z,71.60
2019-03-30T04:48:12.073Z,71.60
2019-03-30T04:50:41.336Z,71.80
2019-03-30T04:53:10.758Z,71.40
2019-03-30T04:55:40.634Z,71.60
2019-03-30T04:58:09.927Z,71.50
2019-03-30T05:00:39.178Z,71.30
2019-03-30T05:03:08.428Z,71.30
2019-03-30T05:05:37.725Z,71.30
2019-03-30T05:08:17.651Z,71.60
2019-03-30T05:10:47.045Z,71.50
2019-03-30T05:13:16.723Z,71.70
2019-03-30T05:15:46.095Z,71.70
2019-03-30T05:18:15.393Z,71.80
2019-03-30T05:20:44.681Z,71.30
2019-03-30T05:23:14.102Z,71.30
2019-03-30T05:25:43.383Z,71.60
2019-03-30T05:28:12.681Z,72.60
2019-03-30T05:30:41.941Z,71.40
2019-03-30T05:33:11.267Z,71.40
2019-03-30T05:35:40.543Z,71.30
2019-03-30T05:38:09.945Z,71.30
2019-03-30T05:40:39.218Z,71.10
2019-03-30T05:43:08.523Z,71.30
2019-03-30T05:45:37.798Z,71.40
2019-03-30T05:48:07.084Z,71.20
2019-03-30T05:50:36.345Z,71.30
2019-03-30T05:53:05.609Z,71.40
2019-03-30T05:55:34.893Z,71.40
2019-03-30T05:58:04.149Z,71.10
2019-03-30T06:00:33.490Z,71.60
2019-03-30T06:03:02.982Z,71.70
2019-03-30T06:05:32.246Z,71.80
2019-03-30T06:08:01.569Z,72.00
2019-03-30T06:10:30.866Z,71.80
2019-03-30T06:13:00.374Z,72.20
2019-03-30T06:15:29.717Z,72.30
2019-03-30T06:17:59.469Z,72.60
2019-03-30T06:20:28.756Z,72.70
2019-03-30T06:22:58.254Z,72.50
2019-03-30T06:25:27.538Z,72.80
2019-03-30T06:27:57.082Z,72.90
2019-03-30T06:30:27.426Z,72.90
2019-03-30T06:32:58.957Z,73.00
2019-03-30T06:35:28.249Z,72.80
2019-03-30T06:37:57.674Z,73.30
2019-03-30T06:40:27.054Z,73.50
2019-03-30T06:42:56.318Z,73.40
2019-03-30T06:45:25.649Z,73.80
2019-03-30T06:47:54.990Z,73.80
2019-03-30T06:50:24.246Z,73.80
2019-03-30T06:52:58.092Z,74.10
2019-03-30T06:55:24.662Z,74.70
2019-03-30T06:57:53.925Z,74.10
2019-03-30T07:00:32.988Z,74.30
2019-03-30T07:03:04.834Z,74.60
2019-03-30T07:05:39.757Z,75.20
2019-03-30T07:08:17.371Z,75.50
2019-03-30T07:10:48.001Z,75.50
2019-03-30T07:13:17.796Z,76.00
2019-03-30T07:15:48.778Z,76.40
2019-03-30T07:18:18.969Z,76.40
2019-03-30T07:20:48.404Z,77.30
2019-03-30T07:23:20.178Z,76.80
2019-03-30T07:25:49.618Z,77.10
2019-03-30T07:28:18.921Z,77.00
2019-03-30T07:30:48.195Z,77.10
2019-03-30T07:33:17.660Z,77.20
2019-03-30T07:35:47.002Z,77.30
2019-03-30T07:38:16.335Z,77.20
2019-03-30T07:40:45.681Z,77.40
2019-03-30T07:43:15.155Z,77.30
2019-03-30T07:45:44.411Z,77.10
2019-03-30T07:48:13.837Z,77.10
2019-03-30T07:50:43.149Z,76.40
2019-03-30T07:53:25.763Z,75.80
2019-03-30T07:55:43.470Z,75.50
2019-03-30T07:58:12.755Z,75.30
2019-03-30T08:00:42.029Z,75.00
2019-03-30T08:03:11.306Z,74.40
2019-03-30T08:05:40.645Z,73.90
2019-03-30T08:08:09.961Z,73.50
2019-03-30T08:10:39.233Z,73.10
2019-03-30T08:13:08.532Z,72.90
2019-03-30T08:15:37.915Z,72.60
2019-03-30T08:18:07.455Z,72.00
2019-03-30T08:20:36.830Z,71.30
2019-03-30T08:23:06.169Z,71.30
2019-03-30T08:25:35.501Z,71.60
2019-03-30T08:28:04.831Z,71.30
2019-03-30T08:30:34.205Z,70.80
2019-03-30T08:33:03.503Z,70.40
2019-03-30T08:35:32.774Z,70.30
2019-03-30T08:38:02.113Z,70.00
2019-03-30T08:40:31.425Z,69.70
2019-03-30T08:43:00.907Z,70.40
2019-03-30T08:45:33.200Z,70.20
2019-03-30T08:48:02.530Z,70.10
2019-03-30T08:50:31.822Z,70.50
2019-03-30T08:53:01.285Z,70.10
2019-03-30T08:55:30.637Z,70.70
2019-03-30T08:58:00.041Z,69.80
2019-03-30T09:00:40.605Z,69.90
2019-03-30T09:03:09.976Z,69.90
2019-03-30T09:05:39.495Z,69.60
2019-03-30T09:08:08.901Z,69.70
2019-03-30T09:10:38.240Z,69.40
2019-03-30T09:13:07.608Z,69.10
2019-03-30T09:15:36.917Z,68.90
2019-03-30T09:18:06.297Z,68.80
2019-03-30T09:20:35.588Z,68.70
2019-03-30T09:23:04.942Z,68.80
2019-03-30T09:25:34.209Z,68.70
2019-03-30T09:28:03.482Z,68.40
2019-03-30T09:30:32.810Z,68.40
2019-03-30T09:33:02.111Z,68.30
2019-03-30T09:35:31.469Z,67.90
2019-03-30T09:38:00.848Z,67.60
2019-03-30T09:40:30.114Z,67.50
2019-03-30T09:43:00.648Z,67.50
2019-03-30T09:45:29.927Z,67.40
2019-03-30T09:47:59.267Z,68.60
2019-03-30T09:50:28.557Z,68.00
2019-03-30T09:52:57.895Z,67.60
2019-03-30T09:55:27.487Z,67.60
2019-03-30T09:57:57.085Z,68.70
2019-03-30T10:00:26.473Z,68.00
2019-03-30T10:02:55.717Z,67.60
2019-03-30T10:05:25.072Z,67.40
2019-03-30T10:07:54.405Z,66.50
2019-03-30T10:10:23.685Z,66.60
2019-03-30T10:12:53.041Z,66.20
2019-03-30T10:15:22.325Z,66.00
2019-03-30T10:17:51.601Z,66.00
2019-03-30T10:20:20.874Z,66.00
2019-03-30T10:22:50.215Z,65.70
2019-03-30T10:25:19.697Z,65.90
2019-03-30T10:27:48.953Z,64.50
2019-03-30T10:30:20.004Z,64.70
2019-03-30T10:32:49.273Z,64.60
2019-03-30T10:35:18.541Z,63.60
2019-03-30T10:37:47.845Z,63.80
2019-03-30T10:40:20.616Z,63.80
2019-03-30T10:42:48.501Z,63.20
2019-03-30T10:45:17.899Z,64.10
2019-03-30T10:47:47.145Z,63.50
2019-03-30T10:50:16.494Z,62.90
2019-03-30T10:52:45.769Z,62.00
2019-03-30T10:55:15.051Z,61.70
2019-03-30T10:57:44.300Z,61.00
2019-03-30T11:00:19.381Z,61.10
2019-03-30T11:02:48.653Z,61.60
2019-03-30T11:05:17.919Z,61.10
2019-03-30T11:07:47.196Z,61.20
2019-03-30T11:10:16.538Z,61.20
2019-03-30T11:12:45.797Z,61.30
2019-03-30T11:15:15.083Z,61.00
2019-03-30T11:17:44.370Z,60.90
2019-03-30T11:20:13.654Z,60.60
2019-03-30T11:22:42.929Z,60.80
2019-03-30T11:25:12.369Z,60.10
2019-03-30T11:27:41.637Z,59.40
2019-03-30T11:30:11.061Z,59.60
2019-03-30T11:32:40.331Z,59.40
2019-03-30T11:35:09.763Z,58.80
2019-03-30T11:37:39.153Z,58.60
2019-03-30T11:40:08.630Z,58.30
2019-03-30T11:42:37.937Z,58.10
2019-03-30T11:45:07.490Z,58.30
2019-03-30T11:47:36.766Z,58.50
2019-03-30T11:50:06.313Z,57.90
2019-03-30T11:52:35.657Z,57.50
2019-03-30T11:55:05.689Z,58.00
2019-03-30T11:57:34.982Z,57.90
2019-03-30T12:00:04.629Z,56.10
2019-03-30T12:02:33.905Z,57.20
2019-03-30T12:05:03.267Z,56.50
2019-03-30T12:07:32.545Z,56.70
2019-03-30T12:10:01.993Z,56.50
2019-03-30T12:12:31.249Z,56.50
2019-03-30T12:15:00.753Z,56.70
2019-03-30T12:17:30.017Z,56.00
2019-03-30T12:19:59.367Z,55.30
2019-03-30T12:22:28.617Z,55.60
2019-03-30T12:24:57.957Z,55.40
2019-03-30T12:27:27.205Z,55.50
2019-03-30T12:29:56.525Z,55.00
2019-03-30T12:32:25.857Z,54.30
2019-03-30T12:34:55.117Z,54.50
2019-03-30T12:37:24.451Z,54.40
2019-03-30T12:39:53.729Z,53.90
2019-03-30T12:42:23.074Z,54.60
2019-03-30T12:44:52.407Z,54.30
2019-03-30T12:47:21.701Z,53.80
2019-03-30T12:49:50.982Z,53.90
2019-03-30T12:52:20.267Z,53.80
2019-03-30T12:54:49.564Z,53.50
2019-03-30T12:57:18.925Z,53.40
2019-03-30T12:59:48.222Z,53.90
2019-03-30T13:02:17.478Z,53.40
2019-03-30T13:04:47.615Z,53.80
2019-03-30T13:07:16.902Z,53.70
2019-03-30T13:09:46.138Z,53.60
2019-03-30T13:12:15.487Z,53.40
2019-03-30T13:14:44.793Z,53.40
2019-03-30T13:17:14.139Z,53.50
2019-03-30T13:19:43.415Z,53.50
2019-03-30T13:22:12.716Z,53.40
2019-03-30T13:24:42.001Z,53.30
2019-03-30T13:27:12.949Z,53.10
2019-03-30T13:29:42.262Z,52.80
2019-03-30T13:32:11.597Z,53.50
2019-03-30T13:34:40.946Z,52.50
2019-03-30T13:37:17.063Z,53.20
2019-03-30T13:39:46.664Z,52.20
2019-03-30T13:42:15.920Z,51.90
2019-03-30T13:44:45.202Z,51.80
2019-03-30T13:47:14.475Z,51.90
2019-03-30T13:49:43.737Z,51.50
2019-03-30T13:52:13.039Z,51.00
2019-03-30T13:54:42.306Z,51.00
2019-03-30T13:57:11.651Z,50.90
2019-03-30T13:59:40.941Z,51.30
2019-03-30T14:02:10.301Z,50.10
2019-03-30T14:04:39.601Z,50.00
2019-03-30T14:07:08.940Z,49.30
2019-03-30T14:09:38.306Z,49.40
2019-03-30T14:12:07.686Z,48.90
2019-03-30T14:14:36.951Z,49.20
2019-03-30T14:17:06.235Z,49.60
2019-03-30T14:19:35.507Z,49.10
2019-03-30T14:22:04.792Z,48.90
2019-03-30T14:24:34.135Z,48.70
2019-03-30T14:27:03.409Z,48.50
2019-03-30T14:29:32.709Z,48.60
2019-03-30T14:32:04.948Z,48.80
2019-03-30T14:34:34.231Z,48.50
2019-03-30T14:37:03.513Z,48.60
2019-03-30T14:39:32.772Z,47.20
2019-03-30T14:42:02.041Z,47.20
2019-03-30T14:44:31.338Z,46.70
2019-03-30T14:47:00.638Z,46.50
2019-03-30T14:49:29.910Z,46.30
2019-03-30T14:51:59.319Z,46.40
2019-03-30T14:54:28.581Z,46.90
2019-03-30T14:56:57.920Z,46.80
2019-03-30T14:59:27.230Z,46.80
2019-03-30T15:01:56.501Z,47.00
2019-03-30T15:04:25.790Z,47.10
2019-03-30T15:06:55.086Z,47.20
2019-03-30T15:09:24.317Z,47.80
2019-03-30T15:11:53.651Z,48.00
2019-03-30T15:14:22.942Z,48.30
2019-03-30T15:16:52.188Z,48.50
2019-03-30T15:19:21.462Z,48.40
2019-03-30T15:21:50.741Z,48.30
2019-03-30T15:24:19.998Z,48.90
2019-03-30T15:26:59.931Z,48.40
2019-03-30T15:29:20.275Z,47.80
2019-03-30T15:31:49.731Z,47.40
2019-03-30T15:34:18.961Z,47.30
2019-03-30T15:36:48.242Z,48.10
2019-03-30T15:39:17.561Z,47.60
2019-03-30T15:41:46.854Z,47.60
2019-03-30T15:44:16.132Z,47.50
2019-03-30T15:46:45.453Z,47.70
2019-03-30T15:49:14.809Z,47.80
2019-03-30T15:51:44.167Z,48.20
2019-03-30T15:54:13.521Z,48.40
2019-03-30T15:56:42.778Z,48.30
2019-03-30T15:59:12.133Z,48.70
2019-03-30T16:01:41.397Z,48.70
2019-03-30T16:04:10.714Z,48.70
2019-03-30T16:06:40.054Z,49.10
2019-03-30T16:09:09.541Z,49.00
2019-03-30T16:11:38.889Z,48.80
2019-03-30T16:14:08.235Z,48.80
2019-03-30T16:16:37.698Z,48.50
2019-03-30T16:19:07.024Z,48.50
2019-03-30T16:21:36.570Z,48.50
2019-03-30T16:24:05.945Z,49.00
2019-03-30T16:26:42.072Z,49.20
2019-03-30T16:29:06.385Z,49.00
2019-03-30T16:31:35.743Z,48.70
2019-03-30T16:34:05.125Z,48.50
2019-03-30T16:36:34.465Z,48.50
2019-03-30T16:39:05.450Z,48.20
2019-03-30T16:41:34.743Z,48.70
2019-03-30T16:44:04.169Z,49.20
2019-03-30T16:46:33.415Z,48.70
2019-03-30T16:49:02.697Z,48.50
2019-03-30T16:51:31.984Z,48.50
2019-03-30T16:54:01.239Z,48.70
2019-03-30T16:56:30.549Z,48.80
2019-03-30T16:58:59.877Z,48.10
2019-03-30T17:01:29.176Z,48.30
2019-03-30T17:03:58.453Z,48.50
2019-03-30T17:06:27.784Z,48.50
2019-03-30T17:08:57.079Z,48.50
2019-03-30T17:11:26.396Z,48.90
2019-03-30T17:13:55.695Z,49.10
2019-03-30T17:16:25.061Z,48.60
2019-03-30T17:18:54.571Z,48.90
2019-03-30T17:21:23.860Z,48.70
2019-03-30T17:23:53.137Z,48.70
2019-03-30T17:26:22.472Z,49.20
2019-03-30T17:28:51.756Z,48.70
2019-03-30T17:31:21.082Z,49.00
2019-03-30T17:33:50.345Z,48.90
2019-03-30T17:36:19.631Z,49.20
2019-03-30T17:38:48.991Z,49.10
2019-03-30T17:41:18.416Z,49.20
2019-03-30T17:43:47.766Z,49.10
2019-03-30T17:46:17.101Z,49.30
2019-03-30T17:48:46.377Z,49.20
2019-03-30T17:51:15.673Z,49.60
2019-03-30T17:53:44.949Z,49.50
2019-03-30T17:56:14.265Z,49.70
2019-03-30T17:58:43.538Z,49.70
2019-03-30T18:01:15.604Z,49.90
2019-03-30T18:03:43.790Z,49.80
2019-03-30T18:06:13.174Z,50.00
2019-03-30T18:08:42.428Z,50.20
2019-03-30T18:11:11.718Z,50.40
2019-03-30T18:13:41.028Z,50.40
2019-03-30T18:16:10.345Z,50.70
2019-03-30T18:18:39.659Z,51.00
2019-03-30T18:21:09.114Z,50.60
2019-03-30T18:23:39.342Z,50.90
2019-03-30T18:26:08.602Z,51.40
2019-03-30T18:28:37.895Z,51.40
2019-03-30T18:31:07.366Z,51.60
2019-03-30T18:33:36.783Z,51.90
2019-03-30T18:36:07.353Z,52.50
2019-03-30T18:38:36.987Z,52.90
2019-03-30T18:41:06.354Z,52.90
2019-03-30T18:43:35.630Z,53.00
2019-03-30T18:46:05.042Z,53.20
2019-03-30T18:48:34.325Z,53.40
2019-03-30T18:51:03.765Z,53.50
2019-03-30T18:53:33.077Z,53.70
2019-03-30T18:56:02.411Z,53.50
2019-03-30T18:58:41.477Z,53.80
2019-03-30T19:01:03.927Z,53.30
2019-03-30T19:03:33.293Z,53.90
2019-03-30T19:06:03.005Z,53.80
2019-03-30T19:08:34.613Z,53.80
2019-03-30T19:11:03.630Z,53.80
2019-03-30T19:13:32.910Z,54.30
2019-03-30T19:16:04.965Z,54.40
2019-03-30T19:18:38.500Z,54.10
2019-03-30T19:21:07.965Z,54.50
2019-03-30T19:23:37.221Z,54.70
2019-03-30T19:26:06.614Z,54.60
2019-03-30T19:28:35.957Z,54.70
2019-03-30T19:31:05.294Z,54.90
2019-03-30T19:33:34.602Z,55.10
2019-03-30T19:36:03.948Z,55.20
2019-03-30T19:38:33.242Z,55.10
2019-03-30T19:41:02.696Z,55.50
2019-03-30T19:43:31.949Z,55.70
2019-03-30T19:46:01.256Z,55.70
2019-03-30T19:48:30.580Z,56.00
2019-03-30T19:50:59.931Z,55.90
2019-03-30T19:53:29.270Z,55.90
2019-03-30T19:55:58.579Z,57.20
2019-03-30T19:58:27.853Z,56.80
2019-03-30T20:00:57.109Z,56.80
2019-03-30T20:03:26.398Z,56.70
2019-03-30T20:05:55.745Z,56.70
2019-03-30T20:08:25.001Z,56.50
2019-03-30T20:10:54.362Z,56.70
2019-03-30T20:13:23.705Z,56.70
2019-03-30T20:15:53.013Z,56.90
2019-03-30T20:18:22.668Z,56.90
2019-03-30T20:20:52.086Z,57.10
2019-03-30T20:23:28.739Z,57.30
2019-03-30T20:25:59.684Z,57.50
2019-03-30T20:28:28.974Z,57.80
2019-03-30T20:30:58.434Z,58.60
2019-03-30T20:33:27.792Z,57.90
2019-03-30T20:35:57.056Z,57.60
2019-03-30T20:38:29.485Z,57.50
2019-03-30T20:40:58.878Z,57.40
2019-03-30T20:43:28.183Z,57.80
2019-03-30T20:45:57.521Z,58.10
2019-03-30T20:48:26.835Z,58.40
2019-03-30T20:50:56.161Z,58.20
2019-03-30T20:53:25.438Z,58.40
2019-03-30T20:55:54.702Z,58.40
2019-03-30T20:58:24.105Z,58.30
2019-03-30T21:00:53.401Z,58.10
2019-03-30T21:03:22.733Z,58.70
2019-03-30T21:05:52.013Z,58.70
2019-03-30T21:08:21.325Z,58.90
2019-03-30T21:10:50.629Z,59.20
2019-03-30T21:13:19.915Z,59.10
2019-03-30T21:15:49.202Z,59.10
2019-03-30T21:18:18.481Z,59.10
2019-03-30T21:20:47.752Z,59.30
2019-03-30T21:23:17.023Z,59.60
2019-03-30T21:25:46.385Z,59.70
2019-03-30T21:28:15.744Z,59.40
2019-03-30T21:30:45.038Z,59.40
2019-03-30T21:33:14.322Z,59.40
2019-03-30T21:35:43.610Z,59.60
2019-03-30T21:38:12.918Z,59.70
2019-03-30T21:40:42.284Z,59.80
2019-03-30T21:43:11.614Z,60.50
2019-03-30T21:45:40.889Z,59.90
2019-03-30T21:48:10.246Z,59.90
2019-03-30T21:50:39.497Z,60.20
2019-03-30T21:53:08.773Z,60.50
2019-03-30T21:55:38.079Z,60.50
2019-03-30T21:58:10.514Z,60.60
2019-03-30T22:00:46.622Z,60.30
2019-03-30T22:03:15.929Z,60.70
2019-03-30T22:05:45.320Z,61.10
2019-03-30T22:08:17.175Z,61.10
2019-03-30T22:10:45.652Z,61.40
2019-03-30T22:13:14.942Z,61.50
2019-03-30T22:15:44.274Z,62.40
2019-03-30T22:18:13.537Z,61.50
2019-03-30T22:20:42.913Z,61.80
2019-03-30T22:23:12.236Z,62.00
2019-03-30T22:25:41.514Z,61.90
2019-03-30T22:28:10.802Z,61.70
2019-03-30T22:30:40.065Z,61.70
2019-03-30T22:33:09.537Z,61.80
2019-03-30T22:35:38.858Z,61.70
2019-03-30T22:38:11.311Z,61.70
2019-03-30T22:40:45.374Z,62.00
2019-03-30T22:43:14.786Z,59.90
2019-03-30T22:45:44.045Z,62.30
2019-03-30T22:48:13.382Z,62.70
2019-03-30T22:50:44.473Z,62.90
2019-03-30T22:53:13.783Z,62.90
2019-03-30T22:55:43.059Z,63.30
2019-03-30T22:58:12.301Z,62.80
2019-03-30T23:00:59.561Z,62.70
2019-03-30T23:03:29.003Z,63.00
2019-03-30T23:05:58.410Z,62.70
2019-03-30T23:08:27.765Z,63.00
2019-03-30T23:10:57.150Z,63.10
2019-03-30T23:13:26.449Z,63.80
2019-03-30T23:15:55.733Z,63.70
2019-03-30T23:18:25.022Z,63.40
2019-03-30T23:20:54.331Z,63.50
2019-03-30T23:23:23.646Z,63.40
2019-03-30T23:25:52.973Z,63.60
2019-03-30T23:28:22.326Z,63.70
2019-03-30T23:30:54.440Z,63.90
2019-03-30T23:33:22.653Z,64.10
2019-03-30T23:35:51.915Z,64.30
2019-03-30T23:38:21.207Z,64.70
2019-03-30T23:40:50.570Z,65.00
2019-03-30T23:43:19.821Z,65.20
2019-03-30T23:45:49.110Z,65.10
2019-03-30T23:48:18.410Z,65.80
2019-03-30T23:50:47.697Z,65.70
2019-03-30T23:53:16.962Z,66.00
2019-03-30T23:55:46.210Z,66.50
2019-03-30T23:58:15.621Z,66.50
